الصفحة الرئيسية
METAR-TAF:

METAR-TAF

مطار :

ميناء القاهرة الجوي

القاهرة, مصر

دائرة عرض: 30-08N, خط طول: 031-24E, ارتفاع: 64 متر

مراقبة الطقس الحالي

تاريخ ووقت الإصدار 22 دقيقة قبل الساعة 03:30UTC
رياح هادئة
درجة الحرارة 11°درجة مئوية
الرطوبة 82%
ضغط 1019 hPa
الرؤية: 2000 متر
العجاج

METAR: HECA 220330Z 00000KT 2000 HZ NSC 11/08 Q1019 NOSIG

زمن: 05:52 (03:52 UTC)

توقعات

تاريخ ووقت الإصدار 4ساعات و 52 دقيقة قبل الساعة 23:00UTC
التوقعات صالحة من22 الساعة 00 UTC إلى 23 الساعة 06 UTC
ريح 3 عقدةمن اتجاهات متغيرة
الرؤية: 6000 متر
مؤقت
من 22 الساعة 00 UTC إلى 22 الساعة 08 UTC
الرؤية: 2000 متر
غشاء
مؤقت
من 22 الساعة 01 UTC إلى 22 الساعة 06 UTC
الرؤية: 1000 متر
نظرية الاحتمالات 30% :
مؤقت
من 22 الساعة 02 UTC إلى 22 الساعة 05 UTC
الرؤية: 0800 متر
ضباب
أصبح
من 22 الساعة 10 UTC إلى 22 الساعة 12 UTC
ريح 9 عقدة من الشمال الغربي
الرؤية 10 كم أو أكثر
غيوم متفرقة على ارتفاع 2500 قدم

TAF: HECA 212300Z 2200/2306 VRB03KT 6000 NSC TEMPO 2200/2208 2000 BR TEMPO 2201/2206 1000 PROB30 TEMPO 2202/2205 0800 FG BECMG 2210/2212 31009KT 9999 SCT025

أرصاد الطقس والتوقعات من أكثر من 4000 مطار (تقارير الطقس للمطار METAR والتنبؤ بالطقس بالمطارTAF).

المحطات المتاحة هي النقط الصفراء والحمراء على الخريطة.

حرك المؤشر فوق النقطة لمعرفة اسم المحطة.

ثم انقر لمعرفة أرصاد وتوقعات الطقس.

لتغيير الخارطة: اضغط على الأزرار الخضراء مع رمز الصليب الأسود للتكبير. على الزر الأخضر مع شرطة للتصغير، أو على الأسهم الخضراء للخرائط المجاورة.


METAR-TAF: